sensor_id;sensor_type;location;lat;lon;timestamp;P1;durP1;ratioP1;P2;durP2;ratioP2
45408;SDS011;31162;51.076;3.784;2024-02-15T00:00:47;7.13;;;4.18;;
45408;SDS011;31162;51.076;3.784;2024-02-15T00:03:13;8.75;;;3.83;;
45408;SDS011;31162;51.076;3.784;2024-02-15T00:05:39;13.90;;;4.10;;
45408;SDS011;31162;51.076;3.784;2024-02-15T00:08:05;9.48;;;3.30;;
45408;SDS011;31162;51.076;3.784;2024-02-15T00:10:31;11.52;;;3.97;;
45408;SDS011;31162;51.076;3.784;2024-02-15T00:12:57;9.60;;;3.38;;
45408;SDS011;31162;51.076;3.784;2024-02-15T00:15:23;7.50;;;3.67;;
45408;SDS011;31162;51.076;3.784;2024-02-15T00:17:49;5.45;;;3.10;;
45408;SDS011;31162;51.076;3.784;2024-02-15T00:20:16;11.32;;;4.07;;
45408;SDS011;31162;51.076;3.784;2024-02-15T00:22:42;9.57;;;3.30;;
45408;SDS011;31162;51.076;3.784;2024-02-15T00:25:08;9.63;;;3.40;;
45408;SDS011;31162;51.076;3.784;2024-02-15T00:27:36;12.65;;;4.10;;
45408;SDS011;31162;51.076;3.784;2024-02-15T00:30:02;10.88;;;3.80;;
45408;SDS011;31162;51.076;3.784;2024-02-15T00:32:32;7.63;;;3.30;;
45408;SDS011;31162;51.076;3.784;2024-02-15T00:34:58;10.30;;;3.67;;
45408;SDS011;31162;51.076;3.784;2024-02-15T00:37:24;11.13;;;3.20;;
45408;SDS011;31162;51.076;3.784;2024-02-15T00:39:49;8.07;;;3.28;;
45408;SDS011;31162;51.076;3.784;2024-02-15T00:42:15;8.95;;;2.85;;
45408;SDS011;31162;51.076;3.784;2024-02-15T00:44:41;10.57;;;3.20;;
45408;SDS011;31162;51.076;3.784;2024-02-15T00:47:07;9.45;;;3.30;;
45408;SDS011;31162;51.076;3.784;2024-02-15T00:49:34;10.85;;;3.15;;
45408;SDS011;31162;51.076;3.784;2024-02-15T00:52:01;6.97;;;3.05;;
45408;SDS011;31162;51.076;3.784;2024-02-15T00:54:26;9.90;;;3.17;;
45408;SDS011;31162;51.076;3.784;2024-02-15T00:56:52;12.07;;;3.22;;
45408;SDS011;31162;51.076;3.784;2024-02-15T00:59:17;9.68;;;2.97;;
45408;SDS011;31162;51.076;3.784;2024-02-15T01:01:43;8.13;;;3.20;;
45408;SDS011;31162;51.076;3.784;2024-02-15T01:04:10;9.60;;;3.22;;
45408;SDS011;31162;51.076;3.784;2024-02-15T01:06:35;8.20;;;3.53;;
45408;SDS011;31162;51.076;3.784;2024-02-15T01:09:02;8.00;;;3.30;;
45408;SDS011;31162;51.076;3.784;2024-02-15T01:11:29;6.45;;;3.08;;
45408;SDS011;31162;51.076;3.784;2024-02-15T01:13:57;9.93;;;3.53;;
45408;SDS011;31162;51.076;3.784;2024-02-15T01:16:23;8.45;;;3.22;;
45408;SDS011;31162;51.076;3.784;2024-02-15T01:18:49;10.40;;;3.40;;
45408;SDS011;31162;51.076;3.784;2024-02-15T01:21:15;9.63;;;3.40;;
45408;SDS011;31162;51.076;3.784;2024-02-15T01:23:42;5.65;;;2.83;;
45408;SDS011;31162;51.076;3.784;2024-02-15T01:26:07;7.60;;;3.67;;
45408;SDS011;31162;51.076;3.784;2024-02-15T01:28:33;9.82;;;3.13;;
45408;SDS011;31162;51.076;3.784;2024-02-15T01:30:59;8.38;;;3.30;;
45408;SDS011;31162;51.076;3.784;2024-02-15T01:33:25;12.88;;;3.40;;
45408;SDS011;31162;51.076;3.784;2024-02-15T01:35:50;9.00;;;3.17;;
45408;SDS011;31162;51.076;3.784;2024-02-15T01:38:16;9.13;;;3.30;;
45408;SDS011;31162;51.076;3.784;2024-02-15T01:40:41;10.52;;;3.50;;
45408;SDS011;31162;51.076;3.784;2024-02-15T01:43:07;10.40;;;3.38;;
45408;SDS011;31162;51.076;3.784;2024-02-15T01:45:33;9.45;;;3.42;;
45408;SDS011;31162;51.076;3.784;2024-02-15T01:47:59;9.60;;;3.88;;
45408;SDS011;31162;51.076;3.784;2024-02-15T01:50:27;7.88;;;3.55;;
45408;SDS011;31162;51.076;3.784;2024-02-15T01:52:53;11.32;;;3.88;;
45408;SDS011;31162;51.076;3.784;2024-02-15T01:55:22;12.18;;;4.70;;
45408;SDS011;31162;51.076;3.784;2024-02-15T01:57:48;7.97;;;3.70;;
45408;SDS011;31162;51.076;3.784;2024-02-15T02:00:23;6.22;;;3.35;;
45408;SDS011;31162;51.076;3.784;2024-02-15T02:02:49;6.53;;;4.00;;
45408;SDS011;31162;51.076;3.784;2024-02-15T02:05:16;10.00;;;4.10;;
45408;SDS011;31162;51.076;3.784;2024-02-15T02:07:42;13.95;;;4.60;;
45408;SDS011;31162;51.076;3.784;2024-02-15T02:10:08;10.02;;;4.38;;
45408;SDS011;31162;51.076;3.784;2024-02-15T02:12:36;6.10;;;3.67;;
45408;SDS011;31162;51.076;3.784;2024-02-15T02:15:04;6.20;;;3.88;;
45408;SDS011;31162;51.076;3.784;2024-02-15T02:17:33;9.73;;;4.00;;
45408;SDS011;31162;51.076;3.784;2024-02-15T02:20:00;9.15;;;4.20;;
45408;SDS011;31162;51.076;3.784;2024-02-15T02:22:26;11.15;;;4.35;;
45408;SDS011;31162;51.076;3.784;2024-02-15T02:27:28;10.73;;;4.03;;
45408;SDS011;31162;51.076;3.784;2024-02-15T02:29:56;8.35;;;3.92;;
45408;SDS011;31162;51.076;3.784;2024-02-15T02:32:24;14.23;;;4.78;;
45408;SDS011;31162;51.076;3.784;2024-02-15T02:34:51;8.68;;;3.97;;
45408;SDS011;31162;51.076;3.784;2024-02-15T02:37:19;6.35;;;3.78;;
45408;SDS011;31162;51.076;3.784;2024-02-15T02:39:45;7.55;;;3.97;;
45408;SDS011;31162;51.076;3.784;2024-02-15T02:42:10;9.43;;;4.38;;
45408;SDS011;31162;51.076;3.784;2024-02-15T02:44:36;8.95;;;3.85;;
45408;SDS011;31162;51.076;3.784;2024-02-15T02:47:01;11.85;;;4.35;;
45408;SDS011;31162;51.076;3.784;2024-02-15T02:49:27;10.68;;;4.00;;
45408;SDS011;31162;51.076;3.784;2024-02-15T02:51:53;7.65;;;3.85;;
45408;SDS011;31162;51.076;3.784;2024-02-15T02:54:18;7.95;;;4.07;;
45408;SDS011;31162;51.076;3.784;2024-02-15T02:56:44;10.38;;;3.55;;
45408;SDS011;31162;51.076;3.784;2024-02-15T02:59:10;11.55;;;4.82;;
45408;SDS011;31162;51.076;3.784;2024-02-15T03:01:36;7.30;;;3.58;;
45408;SDS011;31162;51.076;3.784;2024-02-15T03:04:01;9.40;;;4.18;;
45408;SDS011;31162;51.076;3.784;2024-02-15T03:06:27;9.63;;;4.13;;
45408;SDS011;31162;51.076;3.784;2024-02-15T03:08:53;8.57;;;4.13;;
45408;SDS011;31162;51.076;3.784;2024-02-15T03:11:22;7.25;;;4.35;;
45408;SDS011;31162;51.076;3.784;2024-02-15T03:13:48;10.32;;;4.85;;
45408;SDS011;31162;51.076;3.784;2024-02-15T03:16:14;10.25;;;4.72;;
45408;SDS011;31162;51.076;3.784;2024-02-15T03:18:41;9.98;;;4.63;;
45408;SDS011;31162;51.076;3.784;2024-02-15T03:21:08;8.18;;;4.80;;
45408;SDS011;31162;51.076;3.784;2024-02-15T03:23:36;8.75;;;4.90;;
45408;SDS011;31162;51.076;3.784;2024-02-15T03:26:07;8.30;;;4.53;;
45408;SDS011;31162;51.076;3.784;2024-02-15T03:28:33;7.90;;;4.20;;
45408;SDS011;31162;51.076;3.784;2024-02-15T03:31:01;9.13;;;4.43;;
45408;SDS011;31162;51.076;3.784;2024-02-15T03:33:27;6.57;;;4.60;;
45408;SDS011;31162;51.076;3.784;2024-02-15T03:35:58;10.05;;;4.57;;
45408;SDS011;31162;51.076;3.784;2024-02-15T03:38:27;7.95;;;4.90;;
45408;SDS011;31162;51.076;3.784;2024-02-15T03:40:54;11.45;;;4.80;;
45408;SDS011;31162;51.076;3.784;2024-02-15T03:43:20;7.25;;;4.72;;
45408;SDS011;31162;51.076;3.784;2024-02-15T03:45:48;7.03;;;4.78;;
45408;SDS011;31162;51.076;3.784;2024-02-15T03:48:14;9.45;;;4.90;;
45408;SDS011;31162;51.076;3.784;2024-02-15T03:50:40;8.60;;;4.85;;
45408;SDS011;31162;51.076;3.784;2024-02-15T03:53:06;8.10;;;4.43;;
45408;SDS011;31162;51.076;3.784;2024-02-15T03:55:36;7.05;;;4.93;;
45408;SDS011;31162;51.076;3.784;2024-02-15T03:58:01;9.52;;;4.85;;
45408;SDS011;31162;51.076;3.784;2024-02-15T04:00:27;7.97;;;4.82;;
45408;SDS011;31162;51.076;3.784;2024-02-15T04:02:53;8.82;;;4.30;;
45408;SDS011;31162;51.076;3.784;2024-02-15T04:05:19;8.23;;;4.55;;
45408;SDS011;31162;51.076;3.784;2024-02-15T04:07:48;8.98;;;4.10;;
45408;SDS011;31162;51.076;3.784;2024-02-15T04:10:13;8.52;;;4.43;;
45408;SDS011;31162;51.076;3.784;2024-02-15T04:12:39;10.70;;;4.50;;
45408;SDS011;31162;51.076;3.784;2024-02-15T04:15:07;7.53;;;4.50;;
45408;SDS011;31162;51.076;3.784;2024-02-15T04:17:37;8.32;;;4.60;;
45408;SDS011;31162;51.076;3.784;2024-02-15T04:20:03;11.65;;;4.43;;
45408;SDS011;31162;51.076;3.784;2024-02-15T04:22:31;9.43;;;4.30;;
45408;SDS011;31162;51.076;3.784;2024-02-15T04:25:01;10.95;;;4.28;;
45408;SDS011;31162;51.076;3.784;2024-02-15T04:27:28;9.23;;;4.25;;
45408;SDS011;31162;51.076;3.784;2024-02-15T04:29:54;6.57;;;4.07;;
45408;SDS011;31162;51.076;3.784;2024-02-15T04:32:20;9.77;;;4.50;;
45408;SDS011;31162;51.076;3.784;2024-02-15T04:34:46;8.98;;;5.20;;
45408;SDS011;31162;51.076;3.784;2024-02-15T04:37:12;9.70;;;4.95;;
45408;SDS011;31162;51.076;3.784;2024-02-15T04:39:38;10.75;;;4.95;;
45408;SDS011;31162;51.076;3.784;2024-02-15T04:42:04;11.65;;;5.30;;
45408;SDS011;31162;51.076;3.784;2024-02-15T04:44:36;7.90;;;5.18;;
45408;SDS011;31162;51.076;3.784;2024-02-15T04:47:05;8.43;;;4.35;;
45408;SDS011;31162;51.076;3.784;2024-02-15T04:49:31;12.05;;;4.55;;
45408;SDS011;31162;51.076;3.784;2024-02-15T04:51:58;10.27;;;4.90;;
45408;SDS011;31162;51.076;3.784;2024-02-15T04:54:24;8.75;;;4.70;;
45408;SDS011;31162;51.076;3.784;2024-02-15T04:56:49;11.05;;;4.72;;
45408;SDS011;31162;51.076;3.784;2024-02-15T04:59:19;10.45;;;4.38;;
45408;SDS011;31162;51.076;3.784;2024-02-15T05:01:46;8.80;;;4.47;;
45408;SDS011;31162;51.076;3.784;2024-02-15T05:04:14;8.35;;;4.93;;
45408;SDS011;31162;51.076;3.784;2024-02-15T05:06:40;8.43;;;4.30;;
45408;SDS011;31162;51.076;3.784;2024-02-15T05:09:06;7.30;;;4.78;;
45408;SDS011;31162;51.076;3.784;2024-02-15T05:11:39;9.07;;;4.18;;
45408;SDS011;31162;51.076;3.784;2024-02-15T05:14:14;9.80;;;4.97;;
45408;SDS011;31162;51.076;3.784;2024-02-15T05:16:45;9.45;;;5.07;;
45408;SDS011;31162;51.076;3.784;2024-02-15T05:19:12;7.18;;;4.68;;
45408;SDS011;31162;51.076;3.784;2024-02-15T05:21:39;8.23;;;3.80;;
45408;SDS011;31162;51.076;3.784;2024-02-15T05:24:06;7.43;;;4.05;;
45408;SDS011;31162;51.076;3.784;2024-02-15T05:26:32;7.40;;;4.20;;
45408;SDS011;31162;51.076;3.784;2024-02-15T05:28:57;10.60;;;4.28;;
45408;SDS011;31162;51.076;3.784;2024-02-15T05:31:23;9.40;;;4.40;;
45408;SDS011;31162;51.076;3.784;2024-02-15T05:33:52;5.78;;;3.72;;
45408;SDS011;31162;51.076;3.784;2024-02-15T05:36:19;6.78;;;3.70;;
45408;SDS011;31162;51.076;3.784;2024-02-15T05:38:49;6.22;;;3.63;;
45408;SDS011;31162;51.076;3.784;2024-02-15T05:41:17;7.72;;;3.80;;
45408;SDS011;31162;51.076;3.784;2024-02-15T05:43:44;6.55;;;3.80;;
45408;SDS011;31162;51.076;3.784;2024-02-15T05:46:10;5.57;;;3.28;;
45408;SDS011;31162;51.076;3.784;2024-02-15T05:48:36;5.80;;;3.45;;
45408;SDS011;31162;51.076;3.784;2024-02-15T05:51:02;10.10;;;3.72;;
45408;SDS011;31162;51.076;3.784;2024-02-15T05:53:29;5.57;;;3.33;;
45408;SDS011;31162;51.076;3.784;2024-02-15T05:55:55;7.05;;;3.35;;
45408;SDS011;31162;51.076;3.784;2024-02-15T05:58:23;6.03;;;3.63;;
45408;SDS011;31162;51.076;3.784;2024-02-15T06:00:49;6.57;;;3.38;;
45408;SDS011;31162;51.076;3.784;2024-02-15T06:03:17;6.90;;;4.10;;
45408;SDS011;31162;51.076;3.784;2024-02-15T06:05:51;6.13;;;3.05;;
45408;SDS011;31162;51.076;3.784;2024-02-15T06:08:17;5.68;;;3.22;;
45408;SDS011;31162;51.076;3.784;2024-02-15T06:10:43;4.80;;;3.08;;
45408;SDS011;31162;51.076;3.784;2024-02-15T06:13:09;6.30;;;3.70;;
45408;SDS011;31162;51.076;3.784;2024-02-15T06:15:35;9.20;;;3.38;;
45408;SDS011;31162;51.076;3.784;2024-02-15T06:18:01;8.00;;;3.70;;
45408;SDS011;31162;51.076;3.784;2024-02-15T06:20:28;8.80;;;3.10;;
45408;SDS011;31162;51.076;3.784;2024-02-15T06:22:55;10.35;;;3.70;;
45408;SDS011;31162;51.076;3.784;2024-02-15T06:25:21;6.95;;;3.08;;
45408;SDS011;31162;51.076;3.784;2024-02-15T06:27:48;7.72;;;3.10;;
45408;SDS011;31162;51.076;3.784;2024-02-15T06:30:16;3.50;;;2.50;;
45408;SDS011;31162;51.076;3.784;2024-02-15T06:33:00;6.30;;;2.60;;
45408;SDS011;31162;51.076;3.784;2024-02-15T06:35:44;6.32;;;2.35;;
45408;SDS011;31162;51.076;3.784;2024-02-15T06:38:28;6.70;;;2.92;;
45408;SDS011;31162;51.076;3.784;2024-02-15T06:41:13;6.00;;;2.65;;
45408;SDS011;31162;51.076;3.784;2024-02-15T06:43:38;6.28;;;2.63;;
45408;SDS011;31162;51.076;3.784;2024-02-15T06:46:07;7.32;;;2.53;;
45408;SDS011;31162;51.076;3.784;2024-02-15T06:48:33;4.95;;;2.40;;
45408;SDS011;31162;51.076;3.784;2024-02-15T06:50:59;6.65;;;2.50;;
45408;SDS011;31162;51.076;3.784;2024-02-15T06:53:25;6.70;;;2.70;;
45408;SDS011;31162;51.076;3.784;2024-02-15T06:55:50;5.82;;;2.30;;
45408;SDS011;31162;51.076;3.784;2024-02-15T06:58:16;5.45;;;2.35;;
45408;SDS011;31162;51.076;3.784;2024-02-15T07:00:45;7.15;;;2.30;;
45408;SDS011;31162;51.076;3.784;2024-02-15T07:03:10;2.90;;;2.13;;
45408;SDS011;31162;51.076;3.784;2024-02-15T07:05:36;7.28;;;2.35;;
45408;SDS011;31162;51.076;3.784;2024-02-15T07:08:07;5.93;;;3.63;;
45408;SDS011;31162;51.076;3.784;2024-02-15T07:10:37;5.63;;;2.33;;
45408;SDS011;31162;51.076;3.784;2024-02-15T07:13:04;4.28;;;2.55;;
45408;SDS011;31162;51.076;3.784;2024-02-15T07:15:31;5.10;;;2.17;;
45408;SDS011;31162;51.076;3.784;2024-02-15T07:18:02;7.10;;;2.47;;
45408;SDS011;31162;51.076;3.784;2024-02-15T07:20:31;5.38;;;2.22;;
45408;SDS011;31162;51.076;3.784;2024-02-15T07:22:57;5.07;;;2.60;;
45408;SDS011;31162;51.076;3.784;2024-02-15T07:25:23;7.95;;;3.30;;
45408;SDS011;31162;51.076;3.784;2024-02-15T07:27:49;5.35;;;2.75;;
45408;SDS011;31162;51.076;3.784;2024-02-15T07:30:14;6.32;;;2.63;;
45408;SDS011;31162;51.076;3.784;2024-02-15T07:32:40;5.72;;;2.20;;
45408;SDS011;31162;51.076;3.784;2024-02-15T07:35:06;6.15;;;2.85;;
45408;SDS011;31162;51.076;3.784;2024-02-15T07:37:32;7.20;;;3.03;;
45408;SDS011;31162;51.076;3.784;2024-02-15T07:39:59;7.38;;;3.05;;
45408;SDS011;31162;51.076;3.784;2024-02-15T07:42:24;5.97;;;3.03;;
45408;SDS011;31162;51.076;3.784;2024-02-15T07:44:51;5.60;;;2.92;;
45408;SDS011;31162;51.076;3.784;2024-02-15T07:47:19;8.45;;;3.10;;
45408;SDS011;31162;51.076;3.784;2024-02-15T07:49:49;8.02;;;3.05;;
45408;SDS011;31162;51.076;3.784;2024-02-15T07:52:15;5.97;;;3.22;;
45408;SDS011;31162;51.076;3.784;2024-02-15T07:54:41;6.80;;;3.13;;
45408;SDS011;31162;51.076;3.784;2024-02-15T07:57:06;6.10;;;2.80;;
45408;SDS011;31162;51.076;3.784;2024-02-15T07:59:34;5.63;;;3.08;;
45408;SDS011;31162;51.076;3.784;2024-02-15T08:02:00;6.85;;;2.85;;
45408;SDS011;31162;51.076;3.784;2024-02-15T08:04:26;8.50;;;3.45;;
45408;SDS011;31162;51.076;3.784;2024-02-15T08:06:53;6.97;;;3.22;;
45408;SDS011;31162;51.076;3.784;2024-02-15T08:09:20;8.70;;;3.72;;
45408;SDS011;31162;51.076;3.784;2024-02-15T08:11:49;6.25;;;3.08;;
45408;SDS011;31162;51.076;3.784;2024-02-15T08:14:17;6.00;;;3.28;;
45408;SDS011;31162;51.076;3.784;2024-02-15T08:16:45;8.60;;;3.55;;
45408;SDS011;31162;51.076;3.784;2024-02-15T08:19:11;7.80;;;3.42;;
45408;SDS011;31162;51.076;3.784;2024-02-15T08:21:37;8.38;;;3.60;;
45408;SDS011;31162;51.076;3.784;2024-02-15T08:24:03;6.88;;;3.25;;
45408;SDS011;31162;51.076;3.784;2024-02-15T08:26:33;5.88;;;3.33;;
45408;SDS011;31162;51.076;3.784;2024-02-15T08:29:03;5.68;;;3.20;;
45408;SDS011;31162;51.076;3.784;2024-02-15T08:31:29;6.65;;;3.42;;
45408;SDS011;31162;51.076;3.784;2024-02-15T08:33:58;9.02;;;3.53;;
45408;SDS011;31162;51.076;3.784;2024-02-15T08:36:25;4.63;;;3.28;;
45408;SDS011;31162;51.076;3.784;2024-02-15T08:38:51;4.03;;;3.03;;
45408;SDS011;31162;51.076;3.784;2024-02-15T08:41:17;5.57;;;3.53;;
45408;SDS011;31162;51.076;3.784;2024-02-15T08:43:46;4.70;;;3.17;;
45408;SDS011;31162;51.076;3.784;2024-02-15T08:46:15;10.95;;;3.28;;
45408;SDS011;31162;51.076;3.784;2024-02-15T08:48:40;8.13;;;3.28;;
45408;SDS011;31162;51.076;3.784;2024-02-15T08:51:06;4.43;;;3.05;;
45408;SDS011;31162;51.076;3.784;2024-02-15T08:53:34;8.02;;;3.92;;
45408;SDS011;31162;51.076;3.784;2024-02-15T08:56:01;6.28;;;3.05;;
45408;SDS011;31162;51.076;3.784;2024-02-15T08:58:31;7.90;;;3.80;;
45408;SDS011;31162;51.076;3.784;2024-02-15T09:00:57;7.18;;;3.13;;
45408;SDS011;31162;51.076;3.784;2024-02-15T09:03:23;8.15;;;3.33;;
45408;SDS011;31162;51.076;3.784;2024-02-15T09:05:49;5.72;;;3.25;;
45408;SDS011;31162;51.076;3.784;2024-02-15T09:08:15;5.18;;;2.75;;
45408;SDS011;31162;51.076;3.784;2024-02-15T09:10:45;5.50;;;2.88;;
45408;SDS011;31162;51.076;3.784;2024-02-15T09:13:17;6.75;;;3.00;;
45408;SDS011;31162;51.076;3.784;2024-02-15T09:15:43;5.65;;;2.88;;
45408;SDS011;31162;51.076;3.784;2024-02-15T09:18:08;4.35;;;2.92;;
45408;SDS011;31162;51.076;3.784;2024-02-15T09:20:35;9.40;;;3.20;;
45408;SDS011;31162;51.076;3.784;2024-02-15T09:23:02;7.68;;;3.28;;
45408;SDS011;31162;51.076;3.784;2024-02-15T09:25:34;4.45;;;2.90;;
45408;SDS011;31162;51.076;3.784;2024-02-15T09:28:02;4.05;;;2.63;;
45408;SDS011;31162;51.076;3.784;2024-02-15T09:30:28;5.38;;;2.70;;
45408;SDS011;31162;51.076;3.784;2024-02-15T09:32:56;5.57;;;2.50;;
45408;SDS011;31162;51.076;3.784;2024-02-15T09:35:22;3.75;;;2.30;;
45408;SDS011;31162;51.076;3.784;2024-02-15T09:37:48;4.97;;;2.50;;
45408;SDS011;31162;51.076;3.784;2024-02-15T09:40:15;4.80;;;2.75;;
45408;SDS011;31162;51.076;3.784;2024-02-15T09:42:45;3.90;;;2.20;;
45408;SDS011;31162;51.076;3.784;2024-02-15T09:45:12;3.50;;;2.00;;
45408;SDS011;31162;51.076;3.784;2024-02-15T09:47:39;6.90;;;2.17;;
45408;SDS011;31162;51.076;3.784;2024-02-15T09:50:06;3.95;;;2.00;;
45408;SDS011;31162;51.076;3.784;2024-02-15T09:52:33;5.00;;;2.00;;
45408;SDS011;31162;51.076;3.784;2024-02-15T09:55:02;3.65;;;2.13;;
45408;SDS011;31162;51.076;3.784;2024-02-15T09:57:31;5.22;;;2.00;;
45408;SDS011;31162;51.076;3.784;2024-02-15T09:59:58;5.07;;;1.95;;
45408;SDS011;31162;51.076;3.784;2024-02-15T10:02:25;4.05;;;1.80;;
45408;SDS011;31162;51.076;3.784;2024-02-15T10:04:52;4.97;;;1.80;;
45408;SDS011;31162;51.076;3.784;2024-02-15T10:07:21;3.72;;;2.13;;
45408;SDS011;31162;51.076;3.784;2024-02-15T10:09:51;3.83;;;1.77;;
45408;SDS011;31162;51.076;3.784;2024-02-15T10:12:17;2.88;;;1.58;;
45408;SDS011;31162;51.076;3.784;2024-02-15T10:14:49;3.95;;;1.98;;
45408;SDS011;31162;51.076;3.784;2024-02-15T10:17:17;2.72;;;1.58;;
45408;SDS011;31162;51.076;3.784;2024-02-15T10:19:44;3.10;;;1.70;;
45408;SDS011;31162;51.076;3.784;2024-02-15T10:22:11;3.78;;;1.65;;
45408;SDS011;31162;51.076;3.784;2024-02-15T10:24:39;3.20;;;1.70;;
45408;SDS011;31162;51.076;3.784;2024-02-15T10:27:06;2.47;;;1.63;;
45408;SDS011;31162;51.076;3.784;2024-02-15T10:29:32;3.90;;;1.85;;
45408;SDS011;31162;51.076;3.784;2024-02-15T10:31:59;4.70;;;1.70;;
45408;SDS011;31162;51.076;3.784;2024-02-15T10:34:26;3.00;;;1.70;;
45408;SDS011;31162;51.076;3.784;2024-02-15T10:36:53;2.65;;;1.42;;
45408;SDS011;31162;51.076;3.784;2024-02-15T10:39:21;2.88;;;1.70;;
45408;SDS011;31162;51.076;3.784;2024-02-15T10:44:21;2.10;;;1.45;;
45408;SDS011;31162;51.076;3.784;2024-02-15T10:46:50;3.90;;;1.52;;
45408;SDS011;31162;51.076;3.784;2024-02-15T10:49:17;2.38;;;1.58;;
45408;SDS011;31162;51.076;3.784;2024-02-15T10:51:57;3.35;;;1.67;;
45408;SDS011;31162;51.076;3.784;2024-02-15T10:54:30;4.55;;;2.10;;
45408;SDS011;31162;51.076;3.784;2024-02-15T10:57:20;5.18;;;1.67;;
45408;SDS011;31162;51.076;3.784;2024-02-15T10:59:55;5.63;;;1.98;;
45408;SDS011;31162;51.076;3.784;2024-02-15T11:02:35;4.45;;;1.60;;
45408;SDS011;31162;51.076;3.784;2024-02-15T11:05:06;3.03;;;1.48;;
45408;SDS011;31162;51.076;3.784;2024-02-15T11:07:37;3.72;;;1.50;;
45408;SDS011;31162;51.076;3.784;2024-02-15T11:10:04;2.72;;;1.38;;
45408;SDS011;31162;51.076;3.784;2024-02-15T11:12:35;4.38;;;1.52;;
45408;SDS011;31162;51.076;3.784;2024-02-15T11:15:02;3.63;;;1.35;;
45408;SDS011;31162;51.076;3.784;2024-02-15T11:22:59;2.72;;;1.15;;
45408;SDS011;31162;51.076;3.784;2024-02-15T11:25:38;2.40;;;1.17;;
45408;SDS011;31162;51.076;3.784;2024-02-15T11:30:51;4.25;;;1.63;;
45408;SDS011;31162;51.076;3.784;2024-02-15T11:33:23;2.22;;;1.20;;
45408;SDS011;31162;51.076;3.784;2024-02-15T11:38:32;3.65;;;1.40;;
45408;SDS011;31162;51.076;3.784;2024-02-15T11:40:59;3.50;;;1.38;;
45408;SDS011;31162;51.076;3.784;2024-02-15T11:46:15;4.80;;;1.33;;
45408;SDS011;31162;51.076;3.784;2024-02-15T11:48:43;4.70;;;1.88;;
45408;SDS011;31162;51.076;3.784;2024-02-15T11:51:34;3.00;;;1.30;;
45408;SDS011;31162;51.076;3.784;2024-02-15T11:56:48;3.05;;;1.30;;
45408;SDS011;31162;51.076;3.784;2024-02-15T11:59:19;4.72;;;2.13;;
45408;SDS011;31162;51.076;3.784;2024-02-15T12:01:56;3.60;;;1.65;;
45408;SDS011;31162;51.076;3.784;2024-02-15T12:04:41;4.38;;;1.60;;
45408;SDS011;31162;51.076;3.784;2024-02-15T12:07:26;5.38;;;1.33;;
45408;SDS011;31162;51.076;3.784;2024-02-15T12:10:17;6.50;;;2.03;;
45408;SDS011;31162;51.076;3.784;2024-02-15T12:13:02;3.42;;;1.70;;
45408;SDS011;31162;51.076;3.784;2024-02-15T12:15:56;4.82;;;1.45;;
45408;SDS011;31162;51.076;3.784;2024-02-15T12:18:41;3.72;;;1.70;;
45408;SDS011;31162;51.076;3.784;2024-02-15T12:21:08;3.90;;;1.45;;
45408;SDS011;31162;51.076;3.784;2024-02-15T12:23:37;2.75;;;1.30;;
45408;SDS011;31162;51.076;3.784;2024-02-15T12:26:03;4.22;;;1.63;;
45408;SDS011;31162;51.076;3.784;2024-02-15T12:28:30;3.85;;;1.90;;
45408;SDS011;31162;51.076;3.784;2024-02-15T12:30:56;3.15;;;1.50;;
45408;SDS011;31162;51.076;3.784;2024-02-15T12:33:24;3.33;;;1.45;;
45408;SDS011;31162;51.076;3.784;2024-02-15T12:35:52;3.25;;;1.38;;
45408;SDS011;31162;51.076;3.784;2024-02-15T12:38:32;3.53;;;1.30;;
45408;SDS011;31162;51.076;3.784;2024-02-15T12:41:02;5.40;;;1.30;;
45408;SDS011;31162;51.076;3.784;2024-02-15T12:43:28;3.17;;;1.23;;
45408;SDS011;31162;51.076;3.784;2024-02-15T12:45:55;3.85;;;1.70;;
45408;SDS011;31162;51.076;3.784;2024-02-15T12:48:22;4.22;;;1.60;;
45408;SDS011;31162;51.076;3.784;2024-02-15T12:50:47;2.97;;;1.30;;
45408;SDS011;31162;51.076;3.784;2024-02-15T12:53:20;3.05;;;1.65;;
45408;SDS011;31162;51.076;3.784;2024-02-15T12:55:52;3.25;;;1.65;;
45408;SDS011;31162;51.076;3.784;2024-02-15T12:58:20;2.58;;;1.60;;
45408;SDS011;31162;51.076;3.784;2024-02-15T13:00:45;4.20;;;2.10;;
45408;SDS011;31162;51.076;3.784;2024-02-15T13:03:11;3.72;;;1.52;;
45408;SDS011;31162;51.076;3.784;2024-02-15T13:05:39;3.42;;;1.50;;
45408;SDS011;31162;51.076;3.784;2024-02-15T13:08:05;3.17;;;1.60;;
45408;SDS011;31162;51.076;3.784;2024-02-15T13:10:35;4.03;;;1.75;;
45408;SDS011;31162;51.076;3.784;2024-02-15T13:13:01;4.10;;;1.92;;
45408;SDS011;31162;51.076;3.784;2024-02-15T13:15:27;3.58;;;2.20;;
45408;SDS011;31162;51.076;3.784;2024-02-15T13:17:57;3.88;;;2.10;;
45408;SDS011;31162;51.076;3.784;2024-02-15T13:20:24;6.47;;;2.80;;
45408;SDS011;31162;51.076;3.784;2024-02-15T13:23:00;8.05;;;3.08;;
45408;SDS011;31162;51.076;3.784;2024-02-15T13:25:33;7.22;;;3.78;;
45408;SDS011;31162;51.076;3.784;2024-02-15T13:27:59;5.45;;;3.00;;
45408;SDS011;31162;51.076;3.784;2024-02-15T13:30:25;4.18;;;2.38;;
45408;SDS011;31162;51.076;3.784;2024-02-15T13:32:52;5.25;;;2.83;;
45408;SDS011;31162;51.076;3.784;2024-02-15T13:35:21;6.32;;;3.30;;
45408;SDS011;31162;51.076;3.784;2024-02-15T13:40:19;3.60;;;2.33;;
45408;SDS011;31162;51.076;3.784;2024-02-15T13:42:48;5.25;;;2.63;;
45408;SDS011;31162;51.076;3.784;2024-02-15T13:45:20;3.55;;;2.58;;
45408;SDS011;31162;51.076;3.784;2024-02-15T13:47:47;5.00;;;2.58;;
45408;SDS011;31162;51.076;3.784;2024-02-15T13:50:13;4.85;;;1.90;;
45408;SDS011;31162;51.076;3.784;2024-02-15T13:52:42;4.97;;;2.42;;
45408;SDS011;31162;51.076;3.784;2024-02-15T13:55:12;3.90;;;2.28;;
45408;SDS011;31162;51.076;3.784;2024-02-15T13:57:40;5.28;;;2.80;;
45408;SDS011;31162;51.076;3.784;2024-02-15T14:00:15;4.25;;;2.28;;
45408;SDS011;31162;51.076;3.784;2024-02-15T14:02:51;4.93;;;2.55;;
45408;SDS011;31162;51.076;3.784;2024-02-15T14:05:22;4.70;;;2.40;;
45408;SDS011;31162;51.076;3.784;2024-02-15T14:07:57;4.50;;;2.50;;
45408;SDS011;31162;51.076;3.784;2024-02-15T14:10:24;4.80;;;2.85;;
45408;SDS011;31162;51.076;3.784;2024-02-15T14:12:52;6.30;;;2.65;;
45408;SDS011;31162;51.076;3.784;2024-02-15T14:15:20;6.07;;;2.90;;
45408;SDS011;31162;51.076;3.784;2024-02-15T14:17:48;6.28;;;2.78;;
45408;SDS011;31162;51.076;3.784;2024-02-15T14:20:14;6.10;;;3.35;;
45408;SDS011;31162;51.076;3.784;2024-02-15T14:22:40;6.15;;;3.53;;
45408;SDS011;31162;51.076;3.784;2024-02-15T14:25:09;5.35;;;3.42;;
45408;SDS011;31162;51.076;3.784;2024-02-15T14:27:37;7.05;;;3.33;;
45408;SDS011;31162;51.076;3.784;2024-02-15T14:30:07;6.57;;;3.70;;
45408;SDS011;31162;51.076;3.784;2024-02-15T14:32:51;8.13;;;3.60;;
45408;SDS011;31162;51.076;3.784;2024-02-15T14:35:28;13.80;;;4.80;;
45408;SDS011;31162;51.076;3.784;2024-02-15T14:37:56;6.75;;;3.70;;
45408;SDS011;31162;51.076;3.784;2024-02-15T14:40:27;7.47;;;3.42;;
45408;SDS011;31162;51.076;3.784;2024-02-15T14:42:53;6.63;;;2.85;;
45408;SDS011;31162;51.076;3.784;2024-02-15T14:45:19;6.00;;;3.03;;
45408;SDS011;31162;51.076;3.784;2024-02-15T14:47:45;4.55;;;2.78;;
45408;SDS011;31162;51.076;3.784;2024-02-15T14:50:12;4.38;;;2.47;;
45408;SDS011;31162;51.076;3.784;2024-02-15T14:52:39;5.53;;;2.47;;
45408;SDS011;31162;51.076;3.784;2024-02-15T14:55:05;5.07;;;2.47;;
45408;SDS011;31162;51.076;3.784;2024-02-15T14:57:33;5.80;;;1.90;;
45408;SDS011;31162;51.076;3.784;2024-02-15T15:00:04;4.32;;;1.70;;
45408;SDS011;31162;51.076;3.784;2024-02-15T15:02:36;4.22;;;2.25;;
45408;SDS011;31162;51.076;3.784;2024-02-15T15:05:02;4.07;;;2.20;;
45408;SDS011;31162;51.076;3.784;2024-02-15T15:07:46;3.28;;;1.90;;
45408;SDS011;31162;51.076;3.784;2024-02-15T15:10:30;4.75;;;1.65;;
45408;SDS011;31162;51.076;3.784;2024-02-15T15:13:14;3.03;;;1.60;;
45408;SDS011;31162;51.076;3.784;2024-02-15T15:15:41;3.63;;;1.65;;